sensor_id;sensor_type;location;lat;lon;timestamp;P1;durP1;ratioP1;P2;durP2;ratioP2
13122;SDS011;6627;50.920;12.050;2022-11-20T00:00:54;39.57;;;23.00;;
13122;SDS011;6627;50.920;12.050;2022-11-20T00:03:22;34.97;;;21.87;;
13122;SDS011;6627;50.920;12.050;2022-11-20T00:05:51;39.30;;;22.83;;
13122;SDS011;6627;50.920;12.050;2022-11-20T00:08:19;37.87;;;22.77;;
13122;SDS011;6627;50.920;12.050;2022-11-20T00:10:47;37.23;;;22.23;;
13122;SDS011;6627;50.920;12.050;2022-11-20T00:13:16;36.60;;;22.23;;
13122;SDS011;6627;50.920;12.050;2022-11-20T00:15:43;37.70;;;22.67;;
13122;SDS011;6627;50.920;12.050;2022-11-20T00:18:12;40.57;;;24.47;;
13122;SDS011;6627;50.920;12.050;2022-11-20T00:20:40;38.13;;;23.67;;
13122;SDS011;6627;50.920;12.050;2022-11-20T00:23:08;40.83;;;24.23;;
13122;SDS011;6627;50.920;12.050;2022-11-20T00:25:36;42.90;;;25.00;;
13122;SDS011;6627;50.920;12.050;2022-11-20T00:28:03;35.60;;;22.53;;
13122;SDS011;6627;50.920;12.050;2022-11-20T00:30:31;36.23;;;22.23;;
13122;SDS011;6627;50.920;12.050;2022-11-20T00:32:59;34.27;;;22.47;;
13122;SDS011;6627;50.920;12.050;2022-11-20T00:35:28;37.10;;;22.67;;
13122;SDS011;6627;50.920;12.050;2022-11-20T00:37:56;39.17;;;23.43;;
13122;SDS011;6627;50.920;12.050;2022-11-20T00:40:24;36.77;;;22.13;;
13122;SDS011;6627;50.920;12.050;2022-11-20T00:42:51;30.90;;;18.87;;
13122;SDS011;6627;50.920;12.050;2022-11-20T00:45:20;34.33;;;20.90;;
13122;SDS011;6627;50.920;12.050;2022-11-20T00:47:48;32.77;;;20.30;;
13122;SDS011;6627;50.920;12.050;2022-11-20T00:50:16;36.83;;;21.17;;
13122;SDS011;6627;50.920;12.050;2022-11-20T00:52:46;37.40;;;21.37;;
13122;SDS011;6627;50.920;12.050;2022-11-20T00:55:14;37.97;;;21.70;;
13122;SDS011;6627;50.920;12.050;2022-11-20T00:57:41;35.93;;;23.63;;
13122;SDS011;6627;50.920;12.050;2022-11-20T01:00:09;35.43;;;22.60;;
13122;SDS011;6627;50.920;12.050;2022-11-20T01:02:37;39.63;;;23.73;;
13122;SDS011;6627;50.920;12.050;2022-11-20T01:05:05;40.23;;;24.53;;
13122;SDS011;6627;50.920;12.050;2022-11-20T01:07:33;38.30;;;23.90;;
13122;SDS011;6627;50.920;12.050;2022-11-20T01:10:03;39.47;;;24.40;;
13122;SDS011;6627;50.920;12.050;2022-11-20T01:12:31;37.90;;;23.40;;
13122;SDS011;6627;50.920;12.050;2022-11-20T01:14:59;37.80;;;22.77;;
13122;SDS011;6627;50.920;12.050;2022-11-20T01:17:27;37.57;;;22.50;;
13122;SDS011;6627;50.920;12.050;2022-11-20T01:19:54;40.97;;;24.80;;
13122;SDS011;6627;50.920;12.050;2022-11-20T01:22:22;36.40;;;22.37;;
13122;SDS011;6627;50.920;12.050;2022-11-20T01:24:50;36.13;;;22.30;;
13122;SDS011;6627;50.920;12.050;2022-11-20T01:27:19;32.57;;;20.67;;
13122;SDS011;6627;50.920;12.050;2022-11-20T01:29:46;32.70;;;22.00;;
13122;SDS011;6627;50.920;12.050;2022-11-20T01:32:15;36.60;;;20.10;;
13122;SDS011;6627;50.920;12.050;2022-11-20T01:34:43;29.93;;;19.50;;
13122;SDS011;6627;50.920;12.050;2022-11-20T01:37:11;31.87;;;19.83;;
13122;SDS011;6627;50.920;12.050;2022-11-20T01:39:38;32.40;;;20.10;;
13122;SDS011;6627;50.920;12.050;2022-11-20T01:42:07;31.77;;;18.97;;
13122;SDS011;6627;50.920;12.050;2022-11-20T01:44:54;30.47;;;19.37;;
13122;SDS011;6627;50.920;12.050;2022-11-20T01:47:25;32.43;;;19.53;;
13122;SDS011;6627;50.920;12.050;2022-11-20T01:49:58;33.27;;;19.23;;
13122;SDS011;6627;50.920;12.050;2022-11-20T01:52:32;34.13;;;20.40;;
13122;SDS011;6627;50.920;12.050;2022-11-20T01:55:05;32.40;;;20.60;;
13122;SDS011;6627;50.920;12.050;2022-11-20T01:57:36;33.90;;;20.43;;
13122;SDS011;6627;50.920;12.050;2022-11-20T02:00:07;32.57;;;21.03;;
13122;SDS011;6627;50.920;12.050;2022-11-20T02:02:37;34.37;;;21.53;;
13122;SDS011;6627;50.920;12.050;2022-11-20T02:05:12;39.17;;;22.00;;
13122;SDS011;6627;50.920;12.050;2022-11-20T02:07:46;36.40;;;22.73;;
13122;SDS011;6627;50.920;12.050;2022-11-20T02:10:15;37.53;;;22.43;;
13122;SDS011;6627;50.920;12.050;2022-11-20T02:12:43;38.57;;;23.23;;
13122;SDS011;6627;50.920;12.050;2022-11-20T02:15:30;37.87;;;22.57;;
13122;SDS011;6627;50.920;12.050;2022-11-20T02:17:59;36.60;;;22.30;;
13122;SDS011;6627;50.920;12.050;2022-11-20T02:20:28;35.90;;;21.07;;
13122;SDS011;6627;50.920;12.050;2022-11-20T02:22:56;31.80;;;19.87;;
13122;SDS011;6627;50.920;12.050;2022-11-20T02:25:29;32.97;;;20.53;;
13122;SDS011;6627;50.920;12.050;2022-11-20T02:28:00;31.83;;;19.10;;
13122;SDS011;6627;50.920;12.050;2022-11-20T02:30:28;32.03;;;20.77;;
13122;SDS011;6627;50.920;12.050;2022-11-20T02:32:57;30.50;;;20.17;;
13122;SDS011;6627;50.920;12.050;2022-11-20T02:35:41;34.13;;;20.37;;
13122;SDS011;6627;50.920;12.050;2022-11-20T02:38:10;38.63;;;21.90;;
13122;SDS011;6627;50.920;12.050;2022-11-20T02:40:40;35.30;;;20.40;;
13122;SDS011;6627;50.920;12.050;2022-11-20T02:43:08;33.83;;;20.50;;
13122;SDS011;6627;50.920;12.050;2022-11-20T02:45:37;32.00;;;19.90;;
13122;SDS011;6627;50.920;12.050;2022-11-20T02:48:05;33.67;;;20.20;;
13122;SDS011;6627;50.920;12.050;2022-11-20T02:50:36;31.80;;;19.70;;
13122;SDS011;6627;50.920;12.050;2022-11-20T02:53:05;33.70;;;20.13;;
13122;SDS011;6627;50.920;12.050;2022-11-20T02:55:33;33.77;;;19.37;;
13122;SDS011;6627;50.920;12.050;2022-11-20T02:58:02;33.30;;;20.00;;
13122;SDS011;6627;50.920;12.050;2022-11-20T03:00:30;37.07;;;20.43;;
13122;SDS011;6627;50.920;12.050;2022-11-20T03:02:57;33.67;;;20.30;;
13122;SDS011;6627;50.920;12.050;2022-11-20T03:05:25;31.17;;;18.57;;
13122;SDS011;6627;50.920;12.050;2022-11-20T03:07:53;32.00;;;19.60;;
13122;SDS011;6627;50.920;12.050;2022-11-20T03:10:21;31.37;;;19.50;;
13122;SDS011;6627;50.920;12.050;2022-11-20T03:12:52;31.87;;;18.90;;
13122;SDS011;6627;50.920;12.050;2022-11-20T03:15:22;33.47;;;20.37;;
13122;SDS011;6627;50.920;12.050;2022-11-20T03:17:52;34.13;;;20.67;;
13122;SDS011;6627;50.920;12.050;2022-11-20T03:20:21;30.53;;;18.63;;
13122;SDS011;6627;50.920;12.050;2022-11-20T03:22:49;35.80;;;19.87;;
13122;SDS011;6627;50.920;12.050;2022-11-20T03:25:17;35.67;;;19.93;;
13122;SDS011;6627;50.920;12.050;2022-11-20T03:27:44;35.03;;;21.00;;
13122;SDS011;6627;50.920;12.050;2022-11-20T03:30:12;36.37;;;21.90;;
13122;SDS011;6627;50.920;12.050;2022-11-20T03:32:43;36.80;;;22.00;;
13122;SDS011;6627;50.920;12.050;2022-11-20T03:35:12;36.23;;;22.10;;
13122;SDS011;6627;50.920;12.050;2022-11-20T03:37:39;35.47;;;22.00;;
13122;SDS011;6627;50.920;12.050;2022-11-20T03:40:08;38.70;;;22.10;;
13122;SDS011;6627;50.920;12.050;2022-11-20T03:42:36;35.47;;;22.50;;
13122;SDS011;6627;50.920;12.050;2022-11-20T03:45:12;37.00;;;21.77;;
13122;SDS011;6627;50.920;12.050;2022-11-20T03:47:40;38.27;;;22.57;;
13122;SDS011;6627;50.920;12.050;2022-11-20T03:50:11;37.03;;;21.43;;
13122;SDS011;6627;50.920;12.050;2022-11-20T03:52:39;33.07;;;20.33;;
13122;SDS011;6627;50.920;12.050;2022-11-20T03:55:07;34.80;;;19.93;;
13122;SDS011;6627;50.920;12.050;2022-11-20T03:57:35;30.17;;;19.87;;
13122;SDS011;6627;50.920;12.050;2022-11-20T04:00:03;32.03;;;19.40;;
13122;SDS011;6627;50.920;12.050;2022-11-20T04:02:31;36.40;;;20.07;;
13122;SDS011;6627;50.920;12.050;2022-11-20T04:04:59;31.60;;;19.07;;
13122;SDS011;6627;50.920;12.050;2022-11-20T04:07:28;35.53;;;19.50;;
13122;SDS011;6627;50.920;12.050;2022-11-20T04:09:56;33.77;;;20.30;;
13122;SDS011;6627;50.920;12.050;2022-11-20T04:12:24;40.17;;;22.13;;
13122;SDS011;6627;50.920;12.050;2022-11-20T04:14:52;40.37;;;24.07;;
13122;SDS011;6627;50.920;12.050;2022-11-20T04:17:19;39.43;;;22.70;;
13122;SDS011;6627;50.920;12.050;2022-11-20T04:19:47;37.97;;;22.93;;
13122;SDS011;6627;50.920;12.050;2022-11-20T04:22:15;34.93;;;21.00;;
13122;SDS011;6627;50.920;12.050;2022-11-20T04:24:44;39.30;;;21.80;;
13122;SDS011;6627;50.920;12.050;2022-11-20T04:27:12;34.97;;;21.20;;
13122;SDS011;6627;50.920;12.050;2022-11-20T04:29:39;35.93;;;21.10;;
13122;SDS011;6627;50.920;12.050;2022-11-20T04:32:07;34.77;;;21.17;;
13122;SDS011;6627;50.920;12.050;2022-11-20T04:34:35;38.37;;;21.73;;
13122;SDS011;6627;50.920;12.050;2022-11-20T04:37:03;34.00;;;19.90;;
13122;SDS011;6627;50.920;12.050;2022-11-20T04:39:30;31.90;;;18.13;;
13122;SDS011;6627;50.920;12.050;2022-11-20T04:41:59;32.70;;;18.77;;
13122;SDS011;6627;50.920;12.050;2022-11-20T04:44:53;34.40;;;19.80;;
13122;SDS011;6627;50.920;12.050;2022-11-20T04:47:21;36.40;;;20.30;;
13122;SDS011;6627;50.920;12.050;2022-11-20T04:49:49;33.93;;;19.37;;
13122;SDS011;6627;50.920;12.050;2022-11-20T04:52:16;33.70;;;20.53;;
13122;SDS011;6627;50.920;12.050;2022-11-20T04:54:44;34.43;;;21.20;;
13122;SDS011;6627;50.920;12.050;2022-11-20T04:57:14;35.13;;;20.60;;
13122;SDS011;6627;50.920;12.050;2022-11-20T04:59:41;34.37;;;20.23;;
13122;SDS011;6627;50.920;12.050;2022-11-20T05:02:10;32.63;;;18.87;;
13122;SDS011;6627;50.920;12.050;2022-11-20T05:04:38;34.23;;;19.80;;
13122;SDS011;6627;50.920;12.050;2022-11-20T05:07:06;37.50;;;20.47;;
13122;SDS011;6627;50.920;12.050;2022-11-20T05:09:33;35.93;;;21.30;;
13122;SDS011;6627;50.920;12.050;2022-11-20T05:12:01;36.73;;;20.97;;
13122;SDS011;6627;50.920;12.050;2022-11-20T05:14:30;36.83;;;20.63;;
13122;SDS011;6627;50.920;12.050;2022-11-20T05:16:58;30.70;;;18.00;;
13122;SDS011;6627;50.920;12.050;2022-11-20T05:19:25;34.20;;;18.80;;
13122;SDS011;6627;50.920;12.050;2022-11-20T05:21:53;30.83;;;17.93;;
13122;SDS011;6627;50.920;12.050;2022-11-20T05:24:21;33.60;;;19.27;;
13122;SDS011;6627;50.920;12.050;2022-11-20T05:26:48;41.77;;;25.23;;
13122;SDS011;6627;50.920;12.050;2022-11-20T05:29:16;44.33;;;26.03;;
13122;SDS011;6627;50.920;12.050;2022-11-20T05:31:45;46.53;;;27.63;;
13122;SDS011;6627;50.920;12.050;2022-11-20T05:34:13;44.03;;;25.07;;
13122;SDS011;6627;50.920;12.050;2022-11-20T05:36:40;38.27;;;22.83;;
13122;SDS011;6627;50.920;12.050;2022-11-20T05:39:08;36.03;;;22.10;;
13122;SDS011;6627;50.920;12.050;2022-11-20T05:41:36;36.53;;;22.27;;
13122;SDS011;6627;50.920;12.050;2022-11-20T05:44:03;35.17;;;20.43;;
13122;SDS011;6627;50.920;12.050;2022-11-20T05:46:31;34.83;;;19.53;;
13122;SDS011;6627;50.920;12.050;2022-11-20T05:49:00;35.73;;;19.67;;
13122;SDS011;6627;50.920;12.050;2022-11-20T05:51:28;33.90;;;19.00;;
13122;SDS011;6627;50.920;12.050;2022-11-20T05:53:56;30.87;;;17.97;;
13122;SDS011;6627;50.920;12.050;2022-11-20T05:56:24;33.93;;;19.07;;
13122;SDS011;6627;50.920;12.050;2022-11-20T05:58:52;34.57;;;19.93;;
13122;SDS011;6627;50.920;12.050;2022-11-20T06:01:20;36.93;;;19.53;;
13122;SDS011;6627;50.920;12.050;2022-11-20T06:03:49;43.97;;;22.43;;
13122;SDS011;6627;50.920;12.050;2022-11-20T06:06:19;41.47;;;22.17;;
13122;SDS011;6627;50.920;12.050;2022-11-20T06:08:47;40.37;;;23.43;;
13122;SDS011;6627;50.920;12.050;2022-11-20T06:11:14;41.20;;;23.30;;
13122;SDS011;6627;50.920;12.050;2022-11-20T06:13:44;43.30;;;25.70;;
13122;SDS011;6627;50.920;12.050;2022-11-20T06:16:13;42.03;;;24.07;;
13122;SDS011;6627;50.920;12.050;2022-11-20T06:18:42;38.37;;;21.90;;
13122;SDS011;6627;50.920;12.050;2022-11-20T06:21:10;33.57;;;20.30;;
13122;SDS011;6627;50.920;12.050;2022-11-20T06:23:41;31.17;;;18.87;;
13122;SDS011;6627;50.920;12.050;2022-11-20T06:26:11;33.83;;;19.73;;
13122;SDS011;6627;50.920;12.050;2022-11-20T06:28:41;32.13;;;19.57;;
13122;SDS011;6627;50.920;12.050;2022-11-20T06:31:10;32.60;;;18.47;;
13122;SDS011;6627;50.920;12.050;2022-11-20T06:33:40;29.67;;;18.37;;
13122;SDS011;6627;50.920;12.050;2022-11-20T06:36:09;29.33;;;17.60;;
13122;SDS011;6627;50.920;12.050;2022-11-20T06:38:38;31.07;;;18.30;;
13122;SDS011;6627;50.920;12.050;2022-11-20T06:41:10;29.70;;;17.97;;
13122;SDS011;6627;50.920;12.050;2022-11-20T06:43:39;32.30;;;17.23;;
13122;SDS011;6627;50.920;12.050;2022-11-20T06:46:08;31.60;;;17.93;;
13122;SDS011;6627;50.920;12.050;2022-11-20T06:48:36;33.93;;;18.67;;
13122;SDS011;6627;50.920;12.050;2022-11-20T06:51:04;35.20;;;19.20;;
13122;SDS011;6627;50.920;12.050;2022-11-20T06:53:33;31.53;;;18.30;;
13122;SDS011;6627;50.920;12.050;2022-11-20T06:56:03;34.73;;;20.20;;
13122;SDS011;6627;50.920;12.050;2022-11-20T06:58:31;31.47;;;18.90;;
13122;SDS011;6627;50.920;12.050;2022-11-20T07:01:01;33.40;;;20.00;;
13122;SDS011;6627;50.920;12.050;2022-11-20T07:03:32;34.20;;;19.70;;
13122;SDS011;6627;50.920;12.050;2022-11-20T07:06:00;32.57;;;19.33;;
13122;SDS011;6627;50.920;12.050;2022-11-20T07:08:29;34.77;;;19.83;;
13122;SDS011;6627;50.920;12.050;2022-11-20T07:10:56;32.43;;;18.33;;
13122;SDS011;6627;50.920;12.050;2022-11-20T07:13:32;34.43;;;19.97;;
13122;SDS011;6627;50.920;12.050;2022-11-20T07:16:00;33.87;;;19.87;;
13122;SDS011;6627;50.920;12.050;2022-11-20T07:18:28;32.73;;;19.97;;
13122;SDS011;6627;50.920;12.050;2022-11-20T07:20:56;34.63;;;20.43;;
13122;SDS011;6627;50.920;12.050;2022-11-20T07:23:26;36.67;;;20.13;;
13122;SDS011;6627;50.920;12.050;2022-11-20T07:25:54;34.40;;;20.27;;
13122;SDS011;6627;50.920;12.050;2022-11-20T07:28:21;34.57;;;19.03;;
13122;SDS011;6627;50.920;12.050;2022-11-20T07:30:53;37.40;;;21.83;;
13122;SDS011;6627;50.920;12.050;2022-11-20T07:33:20;32.77;;;20.67;;
13122;SDS011;6627;50.920;12.050;2022-11-20T07:35:48;38.70;;;21.33;;
13122;SDS011;6627;50.920;12.050;2022-11-20T07:38:15;35.63;;;20.83;;
13122;SDS011;6627;50.920;12.050;2022-11-20T07:40:42;38.50;;;22.40;;
13122;SDS011;6627;50.920;12.050;2022-11-20T07:43:10;41.80;;;25.63;;
13122;SDS011;6627;50.920;12.050;2022-11-20T07:45:37;51.27;;;29.93;;
13122;SDS011;6627;50.920;12.050;2022-11-20T07:48:06;52.33;;;30.33;;
13122;SDS011;6627;50.920;12.050;2022-11-20T07:50:34;36.63;;;22.57;;
13122;SDS011;6627;50.920;12.050;2022-11-20T07:53:01;35.20;;;20.70;;
13122;SDS011;6627;50.920;12.050;2022-11-20T07:55:30;34.60;;;20.17;;
13122;SDS011;6627;50.920;12.050;2022-11-20T07:57:58;34.97;;;19.90;;
13122;SDS011;6627;50.920;12.050;2022-11-20T08:00:26;32.37;;;19.23;;
13122;SDS011;6627;50.920;12.050;2022-11-20T08:02:53;34.20;;;19.83;;
13122;SDS011;6627;50.920;12.050;2022-11-20T08:05:22;34.70;;;19.80;;
13122;SDS011;6627;50.920;12.050;2022-11-20T08:07:50;31.30;;;19.23;;
13122;SDS011;6627;50.920;12.050;2022-11-20T08:10:17;32.90;;;19.87;;
13122;SDS011;6627;50.920;12.050;2022-11-20T08:12:45;33.00;;;19.30;;
13122;SDS011;6627;50.920;12.050;2022-11-20T08:15:40;36.37;;;21.23;;
13122;SDS011;6627;50.920;12.050;2022-11-20T08:18:08;36.43;;;20.60;;
13122;SDS011;6627;50.920;12.050;2022-11-20T08:20:38;31.70;;;18.83;;
13122;SDS011;6627;50.920;12.050;2022-11-20T08:23:06;35.27;;;20.27;;
13122;SDS011;6627;50.920;12.050;2022-11-20T08:25:34;34.83;;;19.27;;
13122;SDS011;6627;50.920;12.050;2022-11-20T08:28:04;33.20;;;20.47;;
13122;SDS011;6627;50.920;12.050;2022-11-20T08:30:34;32.30;;;19.47;;
13122;SDS011;6627;50.920;12.050;2022-11-20T08:33:03;34.67;;;19.10;;
13122;SDS011;6627;50.920;12.050;2022-11-20T08:35:33;32.50;;;18.73;;
13122;SDS011;6627;50.920;12.050;2022-11-20T08:38:03;31.97;;;18.97;;
13122;SDS011;6627;50.920;12.050;2022-11-20T08:40:31;29.53;;;18.17;;
13122;SDS011;6627;50.920;12.050;2022-11-20T08:42:59;30.33;;;18.37;;
13122;SDS011;6627;50.920;12.050;2022-11-20T08:45:27;31.60;;;18.47;;
13122;SDS011;6627;50.920;12.050;2022-11-20T08:47:59;33.13;;;18.10;;
13122;SDS011;6627;50.920;12.050;2022-11-20T08:50:27;31.47;;;18.43;;
13122;SDS011;6627;50.920;12.050;2022-11-20T08:53:02;31.13;;;18.57;;
13122;SDS011;6627;50.920;12.050;2022-11-20T08:55:31;30.87;;;18.80;;
13122;SDS011;6627;50.920;12.050;2022-11-20T08:58:02;33.10;;;19.30;;
13122;SDS011;6627;50.920;12.050;2022-11-20T09:00:30;33.27;;;20.20;;
13122;SDS011;6627;50.920;12.050;2022-11-20T09:02:58;32.00;;;20.27;;
13122;SDS011;6627;50.920;12.050;2022-11-20T09:05:26;29.70;;;19.93;;
13122;SDS011;6627;50.920;12.050;2022-11-20T09:07:55;35.10;;;20.43;;
13122;SDS011;6627;50.920;12.050;2022-11-20T09:10:24;31.93;;;19.47;;
13122;SDS011;6627;50.920;12.050;2022-11-20T09:12:52;30.17;;;19.03;;
13122;SDS011;6627;50.920;12.050;2022-11-20T09:15:20;29.87;;;18.77;;
13122;SDS011;6627;50.920;12.050;2022-11-20T09:17:52;31.97;;;19.67;;
13122;SDS011;6627;50.920;12.050;2022-11-20T09:20:20;34.60;;;21.00;;
13122;SDS011;6627;50.920;12.050;2022-11-20T09:22:48;29.97;;;20.50;;
13122;SDS011;6627;50.920;12.050;2022-11-20T09:25:15;35.03;;;20.20;;
13122;SDS011;6627;50.920;12.050;2022-11-20T09:27:44;30.80;;;20.03;;
13122;SDS011;6627;50.920;12.050;2022-11-20T09:30:12;31.87;;;20.13;;
13122;SDS011;6627;50.920;12.050;2022-11-20T09:32:41;33.17;;;20.90;;
13122;SDS011;6627;50.920;12.050;2022-11-20T09:35:09;33.03;;;20.33;;
13122;SDS011;6627;50.920;12.050;2022-11-20T09:37:37;30.73;;;19.27;;
13122;SDS011;6627;50.920;12.050;2022-11-20T09:40:05;30.07;;;18.73;;
13122;SDS011;6627;50.920;12.050;2022-11-20T09:42:43;32.77;;;21.77;;
13122;SDS011;6627;50.920;12.050;2022-11-20T09:45:21;32.97;;;19.93;;
13122;SDS011;6627;50.920;12.050;2022-11-20T09:48:06;32.10;;;19.77;;
13122;SDS011;6627;50.920;12.050;2022-11-20T09:50:52;26.50;;;18.03;;
13122;SDS011;6627;50.920;12.050;2022-11-20T09:53:33;29.67;;;18.80;;
13122;SDS011;6627;50.920;12.050;2022-11-20T09:56:11;32.87;;;21.87;;
13122;SDS011;6627;50.920;12.050;2022-11-20T09:58:42;32.83;;;21.00;;
13122;SDS011;6627;50.920;12.050;2022-11-20T10:01:15;30.13;;;18.53;;
13122;SDS011;6627;50.920;12.050;2022-11-20T10:03:51;31.27;;;20.07;;
13122;SDS011;6627;50.920;12.050;2022-11-20T10:06:28;29.70;;;18.57;;
13122;SDS011;6627;50.920;12.050;2022-11-20T10:09:06;27.87;;;18.40;;
13122;SDS011;6627;50.920;12.050;2022-11-20T10:11:51;29.50;;;18.87;;
13122;SDS011;6627;50.920;12.050;2022-11-20T10:14:41;30.13;;;18.70;;
13122;SDS011;6627;50.920;12.050;2022-11-20T10:17:32;30.20;;;19.43;;
13122;SDS011;6627;50.920;12.050;2022-11-20T10:20:24;26.50;;;17.27;;
13122;SDS011;6627;50.920;12.050;2022-11-20T10:23:16;29.47;;;18.60;;
13122;SDS011;6627;50.920;12.050;2022-11-20T10:26:17;28.13;;;18.63;;
13122;SDS011;6627;50.920;12.050;2022-11-20T10:28:53;30.73;;;20.60;;
13122;SDS011;6627;50.920;12.050;2022-11-20T10:31:39;31.63;;;19.23;;
13122;SDS011;6627;50.920;12.050;2022-11-20T10:34:12;29.07;;;19.13;;
13122;SDS011;6627;50.920;12.050;2022-11-20T10:36:53;28.20;;;19.33;;
13122;SDS011;6627;50.920;12.050;2022-11-20T10:39:31;29.07;;;18.83;;
13122;SDS011;6627;50.920;12.050;2022-11-20T10:42:08;29.53;;;18.43;;
13122;SDS011;6627;50.920;12.050;2022-11-20T10:44:46;28.83;;;18.67;;
13122;SDS011;6627;50.920;12.050;2022-11-20T10:47:30;33.00;;;20.43;;
13122;SDS011;6627;50.920;12.050;2022-11-20T10:49:58;27.60;;;18.87;;
13122;SDS011;6627;50.920;12.050;2022-11-20T10:52:33;28.93;;;19.80;;
13122;SDS011;6627;50.920;12.050;2022-11-20T10:55:21;29.60;;;18.93;;
13122;SDS011;6627;50.920;12.050;2022-11-20T10:58:01;29.33;;;18.23;;
13122;SDS011;6627;50.920;12.050;2022-11-20T11:00:40;26.63;;;17.60;;
13122;SDS011;6627;50.920;12.050;2022-11-20T11:03:20;24.97;;;17.10;;
13122;SDS011;6627;50.920;12.050;2022-11-20T11:05:54;27.00;;;17.63;;
13122;SDS011;6627;50.920;12.050;2022-11-20T11:08:32;26.30;;;17.23;;
13122;SDS011;6627;50.920;12.050;2022-11-20T11:11:07;25.77;;;16.50;;
13122;SDS011;6627;50.920;12.050;2022-11-20T11:13:47;23.37;;;16.50;;
13122;SDS011;6627;50.920;12.050;2022-11-20T11:16:19;25.97;;;17.63;;
13122;SDS011;6627;50.920;12.050;2022-11-20T11:18:50;28.33;;;18.13;;
13122;SDS011;6627;50.920;12.050;2022-11-20T11:21:29;23.60;;;16.57;;
13122;SDS011;6627;50.920;12.050;2022-11-20T11:23:57;24.17;;;16.40;;
13122;SDS011;6627;50.920;12.050;2022-11-20T11:26:33;24.90;;;17.03;;
13122;SDS011;6627;50.920;12.050;2022-11-20T11:29:01;26.00;;;17.10;;
13122;SDS011;6627;50.920;12.050;2022-11-20T11:31:31;25.83;;;17.60;;
13122;SDS011;6627;50.920;12.050;2022-11-20T11:34:06;28.00;;;17.87;;
13122;SDS011;6627;50.920;12.050;2022-11-20T11:36:37;27.87;;;17.70;;
13122;SDS011;6627;50.920;12.050;2022-11-20T11:39:05;27.27;;;18.33;;
13122;SDS011;6627;50.920;12.050;2022-11-20T11:41:40;24.70;;;17.40;;
13122;SDS011;6627;50.920;12.050;2022-11-20T11:44:14;26.87;;;18.10;;
13122;SDS011;6627;50.920;12.050;2022-11-20T11:47:02;25.23;;;17.17;;
13122;SDS011;6627;50.920;12.050;2022-11-20T11:49:36;24.97;;;17.17;;
13122;SDS011;6627;50.920;12.050;2022-11-20T11:52:04;25.30;;;17.10;;
13122;SDS011;6627;50.920;12.050;2022-11-20T11:54:43;27.70;;;17.07;;
13122;SDS011;6627;50.920;12.050;2022-11-20T11:57:20;25.67;;;17.00;;
13122;SDS011;6627;50.920;12.050;2022-11-20T12:00:01;22.97;;;16.07;;
13122;SDS011;6627;50.920;12.050;2022-11-20T12:02:35;26.70;;;16.90;;
13122;SDS011;6627;50.920;12.050;2022-11-20T12:05:23;23.20;;;15.57;;
13122;SDS011;6627;50.920;12.050;2022-11-20T12:07:55;22.90;;;15.60;;
13122;SDS011;6627;50.920;12.050;2022-11-20T12:10:34;22.37;;;16.73;;
13122;SDS011;6627;50.920;12.050;2022-11-20T12:13:15;25.40;;;15.77;;
13122;SDS011;6627;50.920;12.050;2022-11-20T12:15:53;23.17;;;15.83;;
13122;SDS011;6627;50.920;12.050;2022-11-20T12:18:22;21.33;;;15.17;;
13122;SDS011;6627;50.920;12.050;2022-11-20T12:20:55;23.20;;;15.83;;
13122;SDS011;6627;50.920;12.050;2022-11-20T12:23:44;19.50;;;14.40;;
13122;SDS011;6627;50.920;12.050;2022-11-20T12:26:36;21.40;;;14.50;;
13122;SDS011;6627;50.920;12.050;2022-11-20T12:29:29;18.87;;;13.43;;
13122;SDS011;6627;50.920;12.050;2022-11-20T12:32:22;19.57;;;13.50;;
13122;SDS011;6627;50.920;12.050;2022-11-20T12:35:38;20.17;;;12.60;;
13122;SDS011;6627;50.920;12.050;2022-11-20T12:38:31;16.53;;;11.67;;
13122;SDS011;6627;50.920;12.050;2022-11-20T12:41:40;16.00;;;11.17;;
13122;SDS011;6627;50.920;12.050;2022-11-20T12:44:46;14.50;;;9.67;;
13122;SDS011;6627;50.920;12.050;2022-11-20T12:47:46;15.07;;;10.40;;
13122;SDS011;6627;50.920;12.050;2022-11-20T12:50:33;15.87;;;10.43;;
13122;SDS011;6627;50.920;12.050;2022-11-20T12:53:16;15.37;;;11.20;;
13122;SDS011;6627;50.920;12.050;2022-11-20T12:55:58;15.30;;;11.37;;
13122;SDS011;6627;50.920;12.050;2022-11-20T12:58:38;16.27;;;12.43;;
13122;SDS011;6627;50.920;12.050;2022-11-20T13:01:20;16.50;;;11.67;;
13122;SDS011;6627;50.920;12.050;2022-11-20T13:04:16;15.90;;;10.20;;
13122;SDS011;6627;50.920;12.050;2022-11-20T13:06:59;19.80;;;13.73;;
13122;SDS011;6627;50.920;12.050;2022-11-20T13:09:31;17.37;;;12.43;;
13122;SDS011;6627;50.920;12.050;2022-11-20T13:12:12;28.17;;;18.40;;
13122;SDS011;6627;50.920;12.050;2022-11-20T13:14:50;22.23;;;15.43;;
13122;SDS011;6627;50.920;12.050;2022-11-20T13:17:30;23.67;;;15.80;;
13122;SDS011;6627;50.920;12.050;2022-11-20T13:20:12;22.43;;;14.63;;
13122;SDS011;6627;50.920;12.050;2022-11-20T13:22:45;21.47;;;14.43;;
13122;SDS011;6627;50.920;12.050;2022-11-20T13:25:23;20.63;;;14.13;;
13122;SDS011;6627;50.920;12.050;2022-11-20T13:27:55;30.07;;;18.67;;
13122;SDS011;6627;50.920;12.050;2022-11-20T13:30:26;18.57;;;12.97;;
13122;SDS011;6627;50.920;12.050;2022-11-20T13:32:57;16.57;;;10.80;;
13122;SDS011;6627;50.920;12.050;2022-11-20T13:35:33;18.17;;;11.43;;
13122;SDS011;6627;50.920;12.050;2022-11-20T13:38:07;15.87;;;11.27;;
13122;SDS011;6627;50.920;12.050;2022-11-20T13:40:37;13.50;;;9.50;;
13122;SDS011;6627;50.920;12.050;2022-11-20T13:43:23;14.70;;;10.60;;
13122;SDS011;6627;50.920;12.050;2022-11-20T13:46:01;15.43;;;10.90;;
13122;SDS011;6627;50.920;12.050;2022-11-20T13:48:32;13.83;;;10.47;;
13122;SDS011;6627;50.920;12.050;2022-11-20T13:51:12;15.77;;;10.47;;
13122;SDS011;6627;50.920;12.050;2022-11-20T13:57:26;17.80;;;12.07;;
13122;SDS011;6627;50.920;12.050;2022-11-20T14:00:33;15.47;;;10.67;;
13122;SDS011;6627;50.920;12.050;2022-11-20T14:03:16;19.03;;;13.63;;
13122;SDS011;6627;50.920;12.050;2022-11-20T14:05:50;18.60;;;12.27;;
13122;SDS011;6627;50.920;12.050;2022-11-20T14:08:26;19.80;;;12.33;;
13122;SDS011;6627;50.920;12.050;2022-11-20T14:11:06;17.30;;;12.37;;
13122;SDS011;6627;50.920;12.050;2022-11-20T14:13:59;19.13;;;13.10;;
13122;SDS011;6627;50.920;12.050;2022-11-20T14:16:31;20.70;;;13.77;;
13122;SDS011;6627;50.920;12.050;2022-11-20T14:21:52;17.90;;;12.37;;
13122;SDS011;6627;50.920;12.050;2022-11-20T14:24:33;17.90;;;12.10;;
13122;SDS011;6627;50.920;12.050;2022-11-20T14:27:01;17.77;;;12.27;;
13122;SDS011;6627;50.920;12.050;2022-11-20T14:29:32;18.00;;;12.23;;
13122;SDS011;6627;50.920;12.050;2022-11-20T14:32:04;19.50;;;13.10;;
13122;SDS011;6627;50.920;12.050;2022-11-20T14:34:32;25.27;;;18.03;;
13122;SDS011;6627;50.920;12.050;2022-11-20T14:37:09;20.00;;;13.37;;
13122;SDS011;6627;50.920;12.050;2022-11-20T14:39:40;20.80;;;14.07;;
13122;SDS011;6627;50.920;12.050;2022-11-20T14:42:15;21.63;;;14.87;;
13122;SDS011;6627;50.920;12.050;2022-11-20T14:44:46;20.17;;;14.00;;
13122;SDS011;6627;50.920;12.050;2022-11-20T14:47:18;20.23;;;14.17;;
13122;SDS011;6627;50.920;12.050;2022-11-20T14:49:50;49.20;;;40.83;;
13122;SDS011;6627;50.920;12.050;2022-11-20T14:52:21;22.20;;;16.23;;
13122;SDS011;6627;50.920;12.050;2022-11-20T14:54:51;18.83;;;12.27;;
13122;SDS011;6627;50.920;12.050;2022-11-20T14:57:22;22.67;;;14.43;;